sensor_id;sensor_type;location;lat;lon;timestamp;P1;durP1;ratioP1;P2;durP2;ratioP2
9330;SDS011;4704;50.470;12.072;2023-05-29T00:01:48;3.13;;;2.92;;
9330;SDS011;4704;50.470;12.072;2023-05-29T00:04:15;3.33;;;3.03;;
9330;SDS011;4704;50.470;12.072;2023-05-29T00:06:43;4.15;;;3.15;;
9330;SDS011;4704;50.470;12.072;2023-05-29T00:09:11;4.28;;;2.80;;
9330;SDS011;4704;50.470;12.072;2023-05-29T00:11:38;2.75;;;2.55;;
9330;SDS011;4704;50.470;12.072;2023-05-29T00:14:07;3.15;;;2.85;;
9330;SDS011;4704;50.470;12.072;2023-05-29T00:16:39;3.13;;;2.83;;
9330;SDS011;4704;50.470;12.072;2023-05-29T00:19:09;3.17;;;2.88;;
9330;SDS011;4704;50.470;12.072;2023-05-29T00:21:36;2.95;;;2.70;;
9330;SDS011;4704;50.470;12.072;2023-05-29T00:24:04;2.90;;;2.70;;
9330;SDS011;4704;50.470;12.072;2023-05-29T00:26:31;2.78;;;2.58;;
9330;SDS011;4704;50.470;12.072;2023-05-29T00:28:59;2.78;;;2.58;;
9330;SDS011;4704;50.470;12.072;2023-05-29T00:31:28;3.20;;;2.90;;
9330;SDS011;4704;50.470;12.072;2023-05-29T00:33:56;3.03;;;2.72;;
9330;SDS011;4704;50.470;12.072;2023-05-29T00:36:23;3.30;;;3.00;;
9330;SDS011;4704;50.470;12.072;2023-05-29T00:38:51;2.80;;;2.60;;
9330;SDS011;4704;50.470;12.072;2023-05-29T00:41:18;3.10;;;2.80;;
9330;SDS011;4704;50.470;12.072;2023-05-29T00:43:46;3.45;;;3.10;;
9330;SDS011;4704;50.470;12.072;2023-05-29T00:46:14;3.17;;;2.92;;
9330;SDS011;4704;50.470;12.072;2023-05-29T00:48:46;3.22;;;2.92;;
9330;SDS011;4704;50.470;12.072;2023-05-29T00:51:14;3.30;;;3.00;;
9330;SDS011;4704;50.470;12.072;2023-05-29T00:53:42;3.22;;;2.90;;
9330;SDS011;4704;50.470;12.072;2023-05-29T00:56:10;3.45;;;2.88;;
9330;SDS011;4704;50.470;12.072;2023-05-29T00:58:39;2.83;;;2.53;;
9330;SDS011;4704;50.470;12.072;2023-05-29T01:01:07;3.28;;;2.97;;
9330;SDS011;4704;50.470;12.072;2023-05-29T01:03:35;3.38;;;2.85;;
9330;SDS011;4704;50.470;12.072;2023-05-29T01:06:05;4.40;;;2.60;;
9330;SDS011;4704;50.470;12.072;2023-05-29T01:08:33;3.03;;;2.83;;
9330;SDS011;4704;50.470;12.072;2023-05-29T01:11:05;3.20;;;2.88;;
9330;SDS011;4704;50.470;12.072;2023-05-29T01:13:35;2.85;;;2.65;;
9330;SDS011;4704;50.470;12.072;2023-05-29T01:16:05;3.17;;;2.60;;
9330;SDS011;4704;50.470;12.072;2023-05-29T01:18:38;2.90;;;2.65;;
9330;SDS011;4704;50.470;12.072;2023-05-29T01:21:10;3.10;;;2.80;;
9330;SDS011;4704;50.470;12.072;2023-05-29T01:23:58;2.80;;;2.60;;
9330;SDS011;4704;50.470;12.072;2023-05-29T01:29:17;3.13;;;2.83;;
9330;SDS011;4704;50.470;12.072;2023-05-29T01:31:46;3.15;;;2.95;;
9330;SDS011;4704;50.470;12.072;2023-05-29T01:34:14;3.08;;;2.78;;
9330;SDS011;4704;50.470;12.072;2023-05-29T01:36:42;2.88;;;2.67;;
9330;SDS011;4704;50.470;12.072;2023-05-29T01:39:11;3.00;;;2.80;;
9330;SDS011;4704;50.470;12.072;2023-05-29T01:41:39;3.15;;;2.85;;
9330;SDS011;4704;50.470;12.072;2023-05-29T01:44:07;3.05;;;2.85;;
9330;SDS011;4704;50.470;12.072;2023-05-29T01:46:37;3.08;;;2.80;;
9330;SDS011;4704;50.470;12.072;2023-05-29T01:49:05;3.15;;;2.85;;
9330;SDS011;4704;50.470;12.072;2023-05-29T01:51:33;3.55;;;3.25;;
9330;SDS011;4704;50.470;12.072;2023-05-29T01:54:00;3.30;;;3.00;;
9330;SDS011;4704;50.470;12.072;2023-05-29T01:56:29;3.03;;;2.72;;
9330;SDS011;4704;50.470;12.072;2023-05-29T01:58:57;2.72;;;2.53;;
9330;SDS011;4704;50.470;12.072;2023-05-29T02:01:25;3.05;;;2.75;;
9330;SDS011;4704;50.470;12.072;2023-05-29T02:03:54;3.75;;;2.85;;
9330;SDS011;4704;50.470;12.072;2023-05-29T02:06:22;3.00;;;2.78;;
9330;SDS011;4704;50.470;12.072;2023-05-29T02:08:50;3.40;;;3.10;;
9330;SDS011;4704;50.470;12.072;2023-05-29T02:11:17;2.80;;;2.60;;
9330;SDS011;4704;50.470;12.072;2023-05-29T02:13:45;3.40;;;3.10;;
9330;SDS011;4704;50.470;12.072;2023-05-29T02:16:13;3.10;;;2.88;;
9330;SDS011;4704;50.470;12.072;2023-05-29T02:18:42;2.67;;;2.47;;
9330;SDS011;4704;50.470;12.072;2023-05-29T02:21:11;3.83;;;2.70;;
9330;SDS011;4704;50.470;12.072;2023-05-29T02:23:38;3.00;;;2.80;;
9330;SDS011;4704;50.470;12.072;2023-05-29T02:26:06;2.95;;;2.75;;
9330;SDS011;4704;50.470;12.072;2023-05-29T02:28:34;3.20;;;2.90;;
9330;SDS011;4704;50.470;12.072;2023-05-29T02:31:02;3.17;;;2.85;;
9330;SDS011;4704;50.470;12.072;2023-05-29T02:33:29;3.08;;;2.78;;
9330;SDS011;4704;50.470;12.072;2023-05-29T02:35:57;2.70;;;2.50;;
9330;SDS011;4704;50.470;12.072;2023-05-29T02:38:28;3.30;;;2.80;;
9330;SDS011;4704;50.470;12.072;2023-05-29T02:40:55;3.20;;;2.90;;
9330;SDS011;4704;50.470;12.072;2023-05-29T02:43:23;2.92;;;2.72;;
9330;SDS011;4704;50.470;12.072;2023-05-29T02:45:51;3.00;;;2.80;;
9330;SDS011;4704;50.470;12.072;2023-05-29T02:48:18;4.03;;;2.80;;
9330;SDS011;4704;50.470;12.072;2023-05-29T02:50:46;2.95;;;2.65;;
9330;SDS011;4704;50.470;12.072;2023-05-29T02:53:13;3.33;;;3.08;;
9330;SDS011;4704;50.470;12.072;2023-05-29T02:55:42;3.38;;;3.08;;
9330;SDS011;4704;50.470;12.072;2023-05-29T02:58:10;3.33;;;3.03;;
9330;SDS011;4704;50.470;12.072;2023-05-29T03:00:37;3.05;;;2.65;;
9330;SDS011;4704;50.470;12.072;2023-05-29T03:03:05;2.95;;;2.75;;
9330;SDS011;4704;50.470;12.072;2023-05-29T03:05:32;2.85;;;2.65;;
9330;SDS011;4704;50.470;12.072;2023-05-29T03:08:00;3.28;;;2.97;;
9330;SDS011;4704;50.470;12.072;2023-05-29T03:10:27;3.10;;;2.80;;
9330;SDS011;4704;50.470;12.072;2023-05-29T03:12:56;2.80;;;2.60;;
9330;SDS011;4704;50.470;12.072;2023-05-29T03:15:24;2.88;;;2.67;;
9330;SDS011;4704;50.470;12.072;2023-05-29T03:17:51;3.30;;;3.00;;
9330;SDS011;4704;50.470;12.072;2023-05-29T03:20:19;2.75;;;2.55;;
9330;SDS011;4704;50.470;12.072;2023-05-29T03:22:46;3.47;;;2.67;;
9330;SDS011;4704;50.470;12.072;2023-05-29T03:25:14;2.75;;;2.55;;
9330;SDS011;4704;50.470;12.072;2023-05-29T03:27:42;3.00;;;2.80;;
9330;SDS011;4704;50.470;12.072;2023-05-29T03:30:12;3.25;;;2.95;;
9330;SDS011;4704;50.470;12.072;2023-05-29T03:32:39;3.03;;;2.80;;
9330;SDS011;4704;50.470;12.072;2023-05-29T03:35:07;3.08;;;2.88;;
9330;SDS011;4704;50.470;12.072;2023-05-29T03:37:35;2.85;;;2.65;;
9330;SDS011;4704;50.470;12.072;2023-05-29T03:40:03;3.00;;;2.80;;
9330;SDS011;4704;50.470;12.072;2023-05-29T03:42:30;3.75;;;3.08;;
9330;SDS011;4704;50.470;12.072;2023-05-29T03:44:58;3.42;;;2.70;;
9330;SDS011;4704;50.470;12.072;2023-05-29T03:47:27;3.50;;;3.10;;
9330;SDS011;4704;50.470;12.072;2023-05-29T03:49:54;2.78;;;2.58;;
9330;SDS011;4704;50.470;12.072;2023-05-29T03:52:22;3.25;;;2.95;;
9330;SDS011;4704;50.470;12.072;2023-05-29T03:54:49;3.33;;;3.03;;
9330;SDS011;4704;50.470;12.072;2023-05-29T03:57:17;3.20;;;2.88;;
9330;SDS011;4704;50.470;12.072;2023-05-29T03:59:44;2.90;;;2.70;;
9330;SDS011;4704;50.470;12.072;2023-05-29T04:02:12;3.17;;;2.88;;
9330;SDS011;4704;50.470;12.072;2023-05-29T04:04:41;3.22;;;3.03;;
9330;SDS011;4704;50.470;12.072;2023-05-29T04:07:09;3.05;;;2.72;;
9330;SDS011;4704;50.470;12.072;2023-05-29T04:09:36;3.25;;;2.95;;
9330;SDS011;4704;50.470;12.072;2023-05-29T04:12:03;3.10;;;2.80;;
9330;SDS011;4704;50.470;12.072;2023-05-29T04:14:31;3.38;;;2.80;;
9330;SDS011;4704;50.470;12.072;2023-05-29T04:16:59;3.45;;;2.90;;
9330;SDS011;4704;50.470;12.072;2023-05-29T04:19:26;3.22;;;2.92;;
9330;SDS011;4704;50.470;12.072;2023-05-29T04:21:55;3.17;;;2.88;;
9330;SDS011;4704;50.470;12.072;2023-05-29T04:24:22;3.42;;;3.08;;
9330;SDS011;4704;50.470;12.072;2023-05-29T04:26:50;3.28;;;3.00;;
9330;SDS011;4704;50.470;12.072;2023-05-29T04:29:17;2.92;;;2.72;;
9330;SDS011;4704;50.470;12.072;2023-05-29T04:31:46;2.90;;;2.70;;
9330;SDS011;4704;50.470;12.072;2023-05-29T04:34:13;3.30;;;3.00;;
9330;SDS011;4704;50.470;12.072;2023-05-29T04:36:42;3.15;;;2.95;;
9330;SDS011;4704;50.470;12.072;2023-05-29T04:39:11;3.35;;;3.05;;
9330;SDS011;4704;50.470;12.072;2023-05-29T04:41:39;3.47;;;3.17;;
9330;SDS011;4704;50.470;12.072;2023-05-29T04:44:06;3.55;;;3.22;;
9330;SDS011;4704;50.470;12.072;2023-05-29T04:46:36;3.50;;;3.20;;
9330;SDS011;4704;50.470;12.072;2023-05-29T04:49:04;3.13;;;2.85;;
9330;SDS011;4704;50.470;12.072;2023-05-29T04:51:31;3.50;;;3.20;;
9330;SDS011;4704;50.470;12.072;2023-05-29T04:53:58;4.38;;;3.40;;
9330;SDS011;4704;50.470;12.072;2023-05-29T04:56:28;3.35;;;3.05;;
9330;SDS011;4704;50.470;12.072;2023-05-29T04:58:55;3.60;;;3.30;;
9330;SDS011;4704;50.470;12.072;2023-05-29T05:01:23;3.85;;;3.45;;
9330;SDS011;4704;50.470;12.072;2023-05-29T05:03:51;3.72;;;3.33;;
9330;SDS011;4704;50.470;12.072;2023-05-29T05:06:20;3.60;;;3.30;;
9330;SDS011;4704;50.470;12.072;2023-05-29T05:08:50;3.50;;;3.20;;
9330;SDS011;4704;50.470;12.072;2023-05-29T05:11:17;3.50;;;3.20;;
9330;SDS011;4704;50.470;12.072;2023-05-29T05:13:47;4.10;;;3.65;;
9330;SDS011;4704;50.470;12.072;2023-05-29T05:16:15;4.25;;;3.60;;
9330;SDS011;4704;50.470;12.072;2023-05-29T05:18:43;3.70;;;3.40;;
9330;SDS011;4704;50.470;12.072;2023-05-29T05:21:11;3.83;;;3.35;;
9330;SDS011;4704;50.470;12.072;2023-05-29T05:23:38;4.07;;;3.78;;
9330;SDS011;4704;50.470;12.072;2023-05-29T05:26:05;3.90;;;3.60;;
9330;SDS011;4704;50.470;12.072;2023-05-29T05:28:33;3.75;;;3.45;;
9330;SDS011;4704;50.470;12.072;2023-05-29T05:31:02;4.00;;;3.60;;
9330;SDS011;4704;50.470;12.072;2023-05-29T05:33:29;3.70;;;3.40;;
9330;SDS011;4704;50.470;12.072;2023-05-29T05:35:57;4.10;;;3.72;;
9330;SDS011;4704;50.470;12.072;2023-05-29T05:38:24;4.25;;;3.85;;
9330;SDS011;4704;50.470;12.072;2023-05-29T05:40:52;4.30;;;3.90;;
9330;SDS011;4704;50.470;12.072;2023-05-29T05:43:20;4.10;;;3.78;;
9330;SDS011;4704;50.470;12.072;2023-05-29T05:45:48;4.82;;;4.05;;
9330;SDS011;4704;50.470;12.072;2023-05-29T05:48:17;4.07;;;3.53;;
9330;SDS011;4704;50.470;12.072;2023-05-29T05:50:44;4.00;;;3.70;;
9330;SDS011;4704;50.470;12.072;2023-05-29T05:53:12;4.43;;;4.03;;
9330;SDS011;4704;50.470;12.072;2023-05-29T05:55:39;4.40;;;4.00;;
9330;SDS011;4704;50.470;12.072;2023-05-29T05:58:07;4.50;;;4.10;;
9330;SDS011;4704;50.470;12.072;2023-05-29T06:00:34;4.15;;;3.75;;
9330;SDS011;4704;50.470;12.072;2023-05-29T06:03:01;4.15;;;3.85;;
9330;SDS011;4704;50.470;12.072;2023-05-29T06:05:30;4.13;;;3.83;;
9330;SDS011;4704;50.470;12.072;2023-05-29T06:07:59;5.35;;;4.30;;
9330;SDS011;4704;50.470;12.072;2023-05-29T06:10:26;4.18;;;3.85;;
9330;SDS011;4704;50.470;12.072;2023-05-29T06:12:54;4.53;;;4.13;;
9330;SDS011;4704;50.470;12.072;2023-05-29T06:15:21;4.97;;;4.13;;
9330;SDS011;4704;50.470;12.072;2023-05-29T06:17:49;4.18;;;3.78;;
9330;SDS011;4704;50.470;12.072;2023-05-29T06:20:16;5.18;;;4.45;;
9330;SDS011;4704;50.470;12.072;2023-05-29T06:22:46;4.63;;;4.22;;
9330;SDS011;4704;50.470;12.072;2023-05-29T06:25:15;4.47;;;4.07;;
9330;SDS011;4704;50.470;12.072;2023-05-29T06:27:43;4.75;;;4.15;;
9330;SDS011;4704;50.470;12.072;2023-05-29T06:30:11;4.75;;;4.25;;
9330;SDS011;4704;50.470;12.072;2023-05-29T06:32:38;5.70;;;4.65;;
9330;SDS011;4704;50.470;12.072;2023-05-29T06:35:06;4.90;;;4.40;;
9330;SDS011;4704;50.470;12.072;2023-05-29T06:37:34;5.10;;;4.20;;
9330;SDS011;4704;50.470;12.072;2023-05-29T06:40:03;4.85;;;4.35;;
9330;SDS011;4704;50.470;12.072;2023-05-29T06:42:31;4.82;;;4.43;;
9330;SDS011;4704;50.470;12.072;2023-05-29T06:44:58;5.07;;;4.63;;
9330;SDS011;4704;50.470;12.072;2023-05-29T06:47:25;5.00;;;4.50;;
9330;SDS011;4704;50.470;12.072;2023-05-29T06:49:53;5.30;;;4.80;;
9330;SDS011;4704;50.470;12.072;2023-05-29T06:52:20;5.70;;;5.20;;
9330;SDS011;4704;50.470;12.072;2023-05-29T06:54:47;6.25;;;5.65;;
9330;SDS011;4704;50.470;12.072;2023-05-29T06:57:17;6.43;;;5.10;;
9330;SDS011;4704;50.470;12.072;2023-05-29T06:59:44;4.63;;;4.22;;
9330;SDS011;4704;50.470;12.072;2023-05-29T07:02:11;5.20;;;4.70;;
9330;SDS011;4704;50.470;12.072;2023-05-29T07:04:39;5.82;;;5.32;;
9330;SDS011;4704;50.470;12.072;2023-05-29T07:07:06;5.30;;;4.80;;
9330;SDS011;4704;50.470;12.072;2023-05-29T07:09:34;5.28;;;4.78;;
9330;SDS011;4704;50.470;12.072;2023-05-29T07:12:01;4.88;;;4.47;;
9330;SDS011;4704;50.470;12.072;2023-05-29T07:14:30;5.63;;;5.13;;
9330;SDS011;4704;50.470;12.072;2023-05-29T07:16:57;5.57;;;4.95;;
9330;SDS011;4704;50.470;12.072;2023-05-29T07:19:24;5.22;;;4.60;;
9330;SDS011;4704;50.470;12.072;2023-05-29T07:21:52;5.57;;;5.07;;
9330;SDS011;4704;50.470;12.072;2023-05-29T07:24:19;6.25;;;5.65;;
9330;SDS011;4704;50.470;12.072;2023-05-29T07:26:47;5.88;;;5.28;;
9330;SDS011;4704;50.470;12.072;2023-05-29T07:29:14;5.10;;;4.60;;
9330;SDS011;4704;50.470;12.072;2023-05-29T07:31:44;5.38;;;4.88;;
9330;SDS011;4704;50.470;12.072;2023-05-29T07:34:12;6.00;;;5.00;;
9330;SDS011;4704;50.470;12.072;2023-05-29T07:36:55;5.90;;;5.30;;
9330;SDS011;4704;50.470;12.072;2023-05-29T07:39:23;5.60;;;5.10;;
9330;SDS011;4704;50.470;12.072;2023-05-29T07:41:50;5.35;;;4.95;;
9330;SDS011;4704;50.470;12.072;2023-05-29T07:44:17;5.43;;;5.03;;
9330;SDS011;4704;50.470;12.072;2023-05-29T07:46:46;6.10;;;5.40;;
9330;SDS011;4704;50.470;12.072;2023-05-29T07:49:14;5.88;;;5.05;;
9330;SDS011;4704;50.470;12.072;2023-05-29T07:51:41;5.10;;;4.60;;
9330;SDS011;4704;50.470;12.072;2023-05-29T07:54:09;5.10;;;4.35;;
9330;SDS011;4704;50.470;12.072;2023-05-29T07:56:37;5.28;;;4.60;;
9330;SDS011;4704;50.470;12.072;2023-05-29T07:59:06;5.60;;;4.60;;
9330;SDS011;4704;50.470;12.072;2023-05-29T08:01:34;4.80;;;4.40;;
9330;SDS011;4704;50.470;12.072;2023-05-29T08:04:03;5.07;;;4.35;;
9330;SDS011;4704;50.470;12.072;2023-05-29T08:06:31;5.18;;;4.43;;
9330;SDS011;4704;50.470;12.072;2023-05-29T08:08:59;5.47;;;4.95;;
9330;SDS011;4704;50.470;12.072;2023-05-29T08:11:26;5.28;;;4.72;;
9330;SDS011;4704;50.470;12.072;2023-05-29T08:13:54;7.10;;;4.90;;
9330;SDS011;4704;50.470;12.072;2023-05-29T08:16:21;4.85;;;4.45;;
9330;SDS011;4704;50.470;12.072;2023-05-29T08:18:48;4.70;;;4.20;;
9330;SDS011;4704;50.470;12.072;2023-05-29T08:21:17;5.10;;;4.50;;
9330;SDS011;4704;50.470;12.072;2023-05-29T08:23:45;5.78;;;4.82;;
9330;SDS011;4704;50.470;12.072;2023-05-29T08:26:12;4.88;;;4.47;;
9330;SDS011;4704;50.470;12.072;2023-05-29T08:28:40;4.47;;;4.07;;
9330;SDS011;4704;50.470;12.072;2023-05-29T08:31:07;4.63;;;4.22;;
9330;SDS011;4704;50.470;12.072;2023-05-29T08:33:35;4.55;;;4.15;;
9330;SDS011;4704;50.470;12.072;2023-05-29T08:36:03;6.03;;;4.72;;
9330;SDS011;4704;50.470;12.072;2023-05-29T08:38:31;5.80;;;4.88;;
9330;SDS011;4704;50.470;12.072;2023-05-29T08:40:59;5.07;;;4.30;;
9330;SDS011;4704;50.470;12.072;2023-05-29T08:43:28;5.03;;;4.28;;
9330;SDS011;4704;50.470;12.072;2023-05-29T08:45:58;4.28;;;3.88;;
9330;SDS011;4704;50.470;12.072;2023-05-29T08:48:26;4.55;;;3.95;;
9330;SDS011;4704;50.470;12.072;2023-05-29T08:50:55;5.03;;;4.15;;
9330;SDS011;4704;50.470;12.072;2023-05-29T08:53:23;4.22;;;3.83;;
9330;SDS011;4704;50.470;12.072;2023-05-29T08:55:52;4.97;;;4.30;;
9330;SDS011;4704;50.470;12.072;2023-05-29T08:58:21;4.30;;;3.90;;
9330;SDS011;4704;50.470;12.072;2023-05-29T09:00:49;4.03;;;3.40;;
9330;SDS011;4704;50.470;12.072;2023-05-29T09:03:17;4.72;;;3.63;;
9330;SDS011;4704;50.470;12.072;2023-05-29T09:05:45;4.55;;;3.85;;
9330;SDS011;4704;50.470;12.072;2023-05-29T09:08:14;4.10;;;3.70;;
9330;SDS011;4704;50.470;12.072;2023-05-29T09:10:42;5.40;;;3.80;;
9330;SDS011;4704;50.470;12.072;2023-05-29T09:13:11;4.53;;;3.67;;
9330;SDS011;4704;50.470;12.072;2023-05-29T09:15:39;3.97;;;3.60;;
9330;SDS011;4704;50.470;12.072;2023-05-29T09:18:08;3.78;;;3.38;;
9330;SDS011;4704;50.470;12.072;2023-05-29T09:20:35;4.07;;;3.38;;
9330;SDS011;4704;50.470;12.072;2023-05-29T09:23:04;4.80;;;3.65;;
9330;SDS011;4704;50.470;12.072;2023-05-29T09:25:33;4.63;;;3.80;;
9330;SDS011;4704;50.470;12.072;2023-05-29T09:28:01;3.75;;;3.45;;
9330;SDS011;4704;50.470;12.072;2023-05-29T09:30:37;4.45;;;3.42;;
9330;SDS011;4704;50.470;12.072;2023-05-29T09:33:05;4.78;;;3.42;;
9330;SDS011;4704;50.470;12.072;2023-05-29T09:35:36;4.07;;;3.67;;
9330;SDS011;4704;50.470;12.072;2023-05-29T09:38:04;3.90;;;3.50;;
9330;SDS011;4704;50.470;12.072;2023-05-29T09:40:32;3.95;;;3.42;;
9330;SDS011;4704;50.470;12.072;2023-05-29T09:43:03;4.38;;;3.50;;
9330;SDS011;4704;50.470;12.072;2023-05-29T09:45:32;3.97;;;3.60;;
9330;SDS011;4704;50.470;12.072;2023-05-29T09:48:01;4.35;;;3.53;;
9330;SDS011;4704;50.470;12.072;2023-05-29T09:50:29;5.80;;;3.63;;
9330;SDS011;4704;50.470;12.072;2023-05-29T09:52:59;4.20;;;3.67;;
9330;SDS011;4704;50.470;12.072;2023-05-29T09:55:27;4.53;;;3.88;;
9330;SDS011;4704;50.470;12.072;2023-05-29T09:57:56;3.95;;;3.55;;
9330;SDS011;4704;50.470;12.072;2023-05-29T10:00:24;4.20;;;3.80;;
9330;SDS011;4704;50.470;12.072;2023-05-29T10:02:51;4.22;;;3.83;;
9330;SDS011;4704;50.470;12.072;2023-05-29T10:05:20;4.13;;;3.72;;
9330;SDS011;4704;50.470;12.072;2023-05-29T10:07:49;4.43;;;3.72;;
9330;SDS011;4704;50.470;12.072;2023-05-29T10:10:18;3.97;;;3.42;;
9330;SDS011;4704;50.470;12.072;2023-05-29T10:12:48;3.97;;;3.60;;
9330;SDS011;4704;50.470;12.072;2023-05-29T10:15:16;4.20;;;3.80;;
9330;SDS011;4704;50.470;12.072;2023-05-29T10:17:49;3.83;;;3.38;;
9330;SDS011;4704;50.470;12.072;2023-05-29T10:20:17;4.85;;;4.30;;
9330;SDS011;4704;50.470;12.072;2023-05-29T10:22:47;4.68;;;3.45;;
9330;SDS011;4704;50.470;12.072;2023-05-29T10:25:14;4.22;;;3.20;;
9330;SDS011;4704;50.470;12.072;2023-05-29T10:27:45;4.07;;;3.42;;
9330;SDS011;4704;50.470;12.072;2023-05-29T10:30:14;3.78;;;3.47;;
9330;SDS011;4704;50.470;12.072;2023-05-29T10:32:45;4.22;;;3.83;;
9330;SDS011;4704;50.470;12.072;2023-05-29T10:35:22;3.92;;;3.53;;
9330;SDS011;4704;50.470;12.072;2023-05-29T10:37:54;4.35;;;3.70;;
9330;SDS011;4704;50.470;12.072;2023-05-29T10:40:24;3.90;;;3.50;;
9330;SDS011;4704;50.470;12.072;2023-05-29T10:42:52;3.75;;;3.40;;
9330;SDS011;4704;50.470;12.072;2023-05-29T10:51:04;3.50;;;3.20;;
9330;SDS011;4704;50.470;12.072;2023-05-29T10:53:33;3.33;;;3.00;;
9330;SDS011;4704;50.470;12.072;2023-05-29T10:56:05;3.92;;;3.40;;
9330;SDS011;4704;50.470;12.072;2023-05-29T10:58:36;4.55;;;3.47;;
9330;SDS011;4704;50.470;12.072;2023-05-29T11:01:05;3.53;;;3.10;;
9330;SDS011;4704;50.470;12.072;2023-05-29T11:03:35;6.78;;;3.65;;
9330;SDS011;4704;50.470;12.072;2023-05-29T11:06:03;4.80;;;3.20;;
9330;SDS011;4704;50.470;12.072;2023-05-29T11:08:34;3.30;;;2.97;;
9330;SDS011;4704;50.470;12.072;2023-05-29T11:11:02;3.67;;;3.05;;
9330;SDS011;4704;50.470;12.072;2023-05-29T11:13:32;3.05;;;2.75;;
9330;SDS011;4704;50.470;12.072;2023-05-29T11:16:13;4.32;;;3.25;;
9330;SDS011;4704;50.470;12.072;2023-05-29T11:18:43;5.32;;;3.17;;
9330;SDS011;4704;50.470;12.072;2023-05-29T11:23:55;3.85;;;2.92;;
9330;SDS011;4704;50.470;12.072;2023-05-29T11:26:26;3.78;;;3.08;;
9330;SDS011;4704;50.470;12.072;2023-05-29T11:28:56;3.55;;;2.97;;
9330;SDS011;4704;50.470;12.072;2023-05-29T11:31:24;3.08;;;2.88;;
9330;SDS011;4704;50.470;12.072;2023-05-29T11:33:51;3.38;;;3.08;;
9330;SDS011;4704;50.470;12.072;2023-05-29T11:36:22;3.47;;;3.10;;
9330;SDS011;4704;50.470;12.072;2023-05-29T11:38:50;3.22;;;2.85;;
9330;SDS011;4704;50.470;12.072;2023-05-29T11:41:19;4.30;;;3.22;;
9330;SDS011;4704;50.470;12.072;2023-05-29T11:43:55;3.30;;;3.00;;
9330;SDS011;4704;50.470;12.072;2023-05-29T11:46:23;3.72;;;3.05;;
9330;SDS011;4704;50.470;12.072;2023-05-29T11:48:51;3.65;;;3.35;;
9330;SDS011;4704;50.470;12.072;2023-05-29T11:51:19;3.20;;;2.90;;
9330;SDS011;4704;50.470;12.072;2023-05-29T11:53:47;3.30;;;3.00;;
9330;SDS011;4704;50.470;12.072;2023-05-29T11:56:14;4.60;;;2.97;;
9330;SDS011;4704;50.470;12.072;2023-05-29T11:58:43;3.45;;;3.15;;
9330;SDS011;4704;50.470;12.072;2023-05-29T12:01:11;4.88;;;3.22;;
9330;SDS011;4704;50.470;12.072;2023-05-29T12:03:44;3.40;;;3.10;;
9330;SDS011;4704;50.470;12.072;2023-05-29T12:06:12;4.35;;;3.33;;
9330;SDS011;4704;50.470;12.072;2023-05-29T12:08:39;3.97;;;3.58;;
9330;SDS011;4704;50.470;12.072;2023-05-29T12:11:07;3.22;;;2.90;;
9330;SDS011;4704;50.470;12.072;2023-05-29T12:13:34;3.90;;;3.20;;
9330;SDS011;4704;50.470;12.072;2023-05-29T12:16:04;4.07;;;3.30;;
9330;SDS011;4704;50.470;12.072;2023-05-29T12:18:32;3.50;;;3.20;;
9330;SDS011;4704;50.470;12.072;2023-05-29T12:21:00;4.10;;;3.42;;
9330;SDS011;4704;50.470;12.072;2023-05-29T12:23:28;3.55;;;3.25;;
9330;SDS011;4704;50.470;12.072;2023-05-29T12:25:55;4.05;;;3.38;;
9330;SDS011;4704;50.470;12.072;2023-05-29T12:28:23;3.58;;;3.28;;
9330;SDS011;4704;50.470;12.072;2023-05-29T12:30:50;3.42;;;3.13;;
9330;SDS011;4704;50.470;12.072;2023-05-29T12:36:13;4.30;;;3.67;;
9330;SDS011;4704;50.470;12.072;2023-05-29T12:38:47;4.07;;;3.15;;
9330;SDS011;4704;50.470;12.072;2023-05-29T12:41:22;4.53;;;3.22;;
9330;SDS011;4704;50.470;12.072;2023-05-29T12:43:49;3.50;;;3.13;;
9330;SDS011;4704;50.470;12.072;2023-05-29T12:46:16;3.33;;;3.00;;
9330;SDS011;4704;50.470;12.072;2023-05-29T12:48:44;3.83;;;3.50;;
9330;SDS011;4704;50.470;12.072;2023-05-29T12:51:11;3.60;;;3.30;;
9330;SDS011;4704;50.470;12.072;2023-05-29T12:53:40;4.85;;;3.50;;
9330;SDS011;4704;50.470;12.072;2023-05-29T12:56:07;3.85;;;3.50;;
9330;SDS011;4704;50.470;12.072;2023-05-29T12:58:34;3.80;;;3.35;;
9330;SDS011;4704;50.470;12.072;2023-05-29T13:01:02;4.55;;;3.15;;
9330;SDS011;4704;50.470;12.072;2023-05-29T13:03:29;3.70;;;3.40;;
9330;SDS011;4704;50.470;12.072;2023-05-29T13:05:57;4.75;;;3.08;;
9330;SDS011;4704;50.470;12.072;2023-05-29T13:08:25;3.63;;;2.90;;
9330;SDS011;4704;50.470;12.072;2023-05-29T13:10:54;3.92;;;3.53;;
9330;SDS011;4704;50.470;12.072;2023-05-29T13:13:21;4.70;;;3.67;;
9330;SDS011;4704;50.470;12.072;2023-05-29T13:15:49;4.10;;;3.00;;
9330;SDS011;4704;50.470;12.072;2023-05-29T13:18:16;3.47;;;3.17;;
9330;SDS011;4704;50.470;12.072;2023-05-29T13:20:43;3.53;;;3.22;;
9330;SDS011;4704;50.470;12.072;2023-05-29T13:23:11;3.90;;;3.50;;
9330;SDS011;4704;50.470;12.072;2023-05-29T13:25:38;3.65;;;3.30;;
9330;SDS011;4704;50.470;12.072;2023-05-29T13:28:07;3.85;;;3.55;;
9330;SDS011;4704;50.470;12.072;2023-05-29T13:30:34;4.20;;;3.30;;
9330;SDS011;4704;50.470;12.072;2023-05-29T13:33:02;4.68;;;3.47;;
9330;SDS011;4704;50.470;12.072;2023-05-29T13:35:29;3.63;;;3.20;;
9330;SDS011;4704;50.470;12.072;2023-05-29T13:37:56;3.42;;;3.13;;
9330;SDS011;4704;50.470;12.072;2023-05-29T13:40:24;3.72;;;3.42;;
9330;SDS011;4704;50.470;12.072;2023-05-29T13:42:51;3.90;;;3.58;;
9330;SDS011;4704;50.470;12.072;2023-05-29T13:45:20;3.90;;;3.53;;
9330;SDS011;4704;50.470;12.072;2023-05-29T13:47:47;3.72;;;3.10;;
9330;SDS011;4704;50.470;12.072;2023-05-29T13:50:15;3.50;;;3.17;;
9330;SDS011;4704;50.470;12.072;2023-05-29T13:52:42;3.83;;;3.25;;
9330;SDS011;4704;50.470;12.072;2023-05-29T13:55:09;3.92;;;3.38;;
9330;SDS011;4704;50.470;12.072;2023-05-29T13:57:37;3.58;;;3.28;;
9330;SDS011;4704;50.470;12.072;2023-05-29T14:00:05;3.60;;;3.30;;
9330;SDS011;4704;50.470;12.072;2023-05-29T14:02:34;3.47;;;3.15;;
9330;SDS011;4704;50.470;12.072;2023-05-29T14:05:01;4.13;;;3.28;;
9330;SDS011;4704;50.470;12.072;2023-05-29T14:07:29;3.70;;;3.40;;
9330;SDS011;4704;50.470;12.072;2023-05-29T14:09:56;3.80;;;3.40;;
9330;SDS011;4704;50.470;12.072;2023-05-29T14:12:23;3.33;;;3.00;;
9330;SDS011;4704;50.470;12.072;2023-05-29T14:14:51;3.40;;;3.10;;
9330;SDS011;4704;50.470;12.072;2023-05-29T14:17:18;3.35;;;3.10;;
9330;SDS011;4704;50.470;12.072;2023-05-29T14:19:47;4.30;;;3.30;;
9330;SDS011;4704;50.470;12.072;2023-05-29T14:22:14;3.63;;;3.33;;
9330;SDS011;4704;50.470;12.072;2023-05-29T14:24:42;3.65;;;3.30;;
9330;SDS011;4704;50.470;12.072;2023-05-29T14:27:09;3.65;;;3.35;;
9330;SDS011;4704;50.470;12.072;2023-05-29T14:29:36;4.32;;;3.25;;
9330;SDS011;4704;50.470;12.072;2023-05-29T14:32:04;4.57;;;3.45;;
9330;SDS011;4704;50.470;12.072;2023-05-29T14:34:31;3.40;;;3.10;;
9330;SDS011;4704;50.470;12.072;2023-05-29T14:37:00;3.40;;;3.10;;
9330;SDS011;4704;50.470;12.072;2023-05-29T14:39:28;3.70;;;3.40;;
9330;SDS011;4704;50.470;12.072;2023-05-29T14:41:55;3.55;;;3.22;;
9330;SDS011;4704;50.470;12.072;2023-05-29T14:44:22;5.13;;;3.47;;
9330;SDS011;4704;50.470;12.072;2023-05-29T14:46:50;3.60;;;3.30;;
9330;SDS011;4704;50.470;12.072;2023-05-29T14:49:17;3.80;;;3.40;;
9330;SDS011;4704;50.470;12.072;2023-05-29T14:51:46;3.78;;;3.47;;
9330;SDS011;4704;50.470;12.072;2023-05-29T14:54:15;3.50;;;3.20;;
9330;SDS011;4704;50.470;12.072;2023-05-29T14:56:42;3.83;;;3.42;;
9330;SDS011;4704;50.470;12.072;2023-05-29T14:59:10;4.00;;;3.60;;
9330;SDS011;4704;50.470;12.072;2023-05-29T15:01:38;3.58;;;3.20;;
9330;SDS011;4704;50.470;12.072;2023-05-29T15:04:06;4.18;;;3.05;;
9330;SDS011;4704;50.470;12.072;2023-05-29T15:06:33;3.60;;;3.30;;
9330;SDS011;4704;50.470;12.072;2023-05-29T15:09:00;4.03;;;3.35;;
9330;SDS011;4704;50.470;12.072;2023-05-29T15:11:29;3.58;;;3.28;;
9330;SDS011;4704;50.470;12.072;2023-05-29T15:13:57;5.47;;;3.33;;
9330;SDS011;4704;50.470;12.072;2023-05-29T15:16:25;4.22;;;3.50;;
9330;SDS011;4704;50.470;12.072;2023-05-29T15:18:52;3.70;;;3.30;;
9330;SDS011;4704;50.470;12.072;2023-05-29T15:21:19;4.50;;;3.40;;